Wetterdaten: aktuell Freitag, 28.01.2022 18:10
Datum Zeit Temp. A. Feuchte A. Luftdruck Regen Wind Taupunkt Windchill Windben
28.01.2022 18:10 3,7 C 70 % 1033,8 hPa 0,0 l/m 5,3 km/h (1 Bft) -1,3 C 3,7 C 16,1 km/h (3 Bft)
28.01.2022 18:00 3,7 C 70 % 1033,7 hPa 0,0 l/m 5,5 km/h (1 Bft) -1,3 C 3,7 C 14,5 km/h (3 Bft)
28.01.2022 17:50 3,7 C 70 % 1033,7 hPa 0,0 l/m 4,0 km/h (1 Bft) -1,3 C 3,7 C 11,3 km/h (2 Bft)
28.01.2022 17:40 3,8 C 70 % 1033,6 hPa 0,0 l/m 6,4 km/h (2 Bft) -1,2 C 3,8 C 16,1 km/h (3 Bft)
28.01.2022 17:30 3,9 C 70 % 1033,5 hPa 0,0 l/m 7,2 km/h (2 Bft) -1,1 C 3,2 C 19,3 km/h (3 Bft)
28.01.2022 17:20 4,0 C 69 % 1033,2 hPa 0,0 l/m 8,1 km/h (2 Bft) -1,2 C 2,5 C 16,1 km/h (3 Bft)
28.01.2022 17:10 4,0 C 69 % 1033,1 hPa 0,0 l/m 6,2 km/h (2 Bft) -1,2 C 4,0 C 16,1 km/h (3 Bft)
28.01.2022 17:00 4,1 C 68 % 1033,1 hPa 0,0 l/m 7,6 km/h (2 Bft) -1,3 C 3,0 C 16,1 km/h (3 Bft)
28.01.2022 16:50 4,2 C 67 % 1032,9 hPa 0,0 l/m 8,7 km/h (2 Bft) -1,4 C 2,2 C 22,5 km/h (4 Bft)
28.01.2022 16:40 4,2 C 66 % 1032,9 hPa 0,0 l/m 8,0 km/h (2 Bft) -1,6 C 2,8 C 19,3 km/h (3 Bft)
28.01.2022 16:30 4,3 C 66 % 1032,8 hPa 0,0 l/m 7,8 km/h (2 Bft) -1,5 C 3,0 C 19,3 km/h (3 Bft)
28.01.2022 16:20 4,3 C 65 % 1032,8 hPa 0,0 l/m 8,8 km/h (2 Bft) -1,7 C 2,2 C 24,1 km/h (4 Bft)
28.01.2022 16:10 4,4 C 64 % 1032,6 hPa 0,0 l/m 9,1 km/h (2 Bft) -1,8 C 2,1 C 19,3 km/h (3 Bft)
28.01.2022 16:00 4,5 C 63 % 1032,4 hPa 0,0 l/m 9,9 km/h (2 Bft) -1,9 C 1,6 C 20,9 km/h (4 Bft)
28.01.2022 15:30 4,7 C 63 % 1032,3 hPa 0,0 l/m 11,3 km/h (2 Bft) -1,7 C 0,9 C 29,0 km/h (5 Bft)
28.01.2022 15:00 4,6 C 63 % 1032,1 hPa 0,0 l/m 12,9 km/h (3 Bft) -1,8 C -0,2 C 30,6 km/h (5 Bft)
28.01.2022 14:30 4,4 C 66 % 1032,0 hPa 0,0 l/m 16,1 km/h (3 Bft) -1,4 C -2,2 C 33,8 km/h (5 Bft)
28.01.2022 14:00 4,4 C 66 % 1032,1 hPa 0,0 l/m 11,3 km/h (2 Bft) -1,4 C 0,5 C 29,0 km/h (5 Bft)
28.01.2022 13:30 4,4 C 64 % 1032,2 hPa 0,0 l/m 11,3 km/h (2 Bft) -1,8 C 0,5 C 30,6 km/h (5 Bft)
28.01.2022 13:00 4,1 C 67 % 1032,6 hPa 0,0 l/m 12,9 km/h (3 Bft) -1,5 C -0,8 C 29,0 km/h (5 Bft)
28.01.2022 12:30 3,9 C 71 % 1032,5 hPa 0,0 l/m 8,0 km/h (2 Bft) -0,9 C 2,4 C 20,9 km/h (4 Bft)
_ Min-Zeit 08:30 15:00 00:00 - 17:50 16:00 00:00 17:50
Minimum _ 1,8 C 63 % 1025,4 hPa - 4,0 km/h (1 Bft) -1,9 C -5,2 C 11,3 km/h (2 Bft)
_ Max-Zeit 15:30 02:30 18:10 02:30 00:00 03:00 17:10 00:00
Maximum _ 4,8 C 82 % 1033,8 hPa 0,2 l/m 17,7 km/h
W-SW (3 Bft)
-0,4 C 4,0 C 43,5 km/h
W-SW (6 Bft)
Durchschnitt _ 3,1 C 75 % 1030,1 hPa #0,2 l/m 11,6 km/h (2 Bft) -1,0 C -1,1 C 28,2 km/h (4 Bft)